Time;durP1;ratioP1;P1;durP2;ratioP2;P2;SDS_P1;SDS_P2;PMS_P1;PMS_P2;Temp;Humidity;BMP_temperature;BMP_pressure;BME280_temperature;BME280_humidity;BME280_pressure;Samples;Min_cycle;Max_cycle;Signal;HPM_P1;HPM_P2
2024/03/31 00:02:19;;;;;;;40.65;4.78;;;;;;;9.84;100.00;95220.69;4999143;28;20696;-68
2024/03/31 00:04:48;;;;;;;48.17;6.18;;;;;;;8.91;100.00;95207.28;4985070;28;20038;-69
2024/03/31 00:07:14;;;;;;;47.20;5.53;;;;;;;8.53;100.00;95185.88;4998446;28;20107;-68
2024/03/31 00:09:40;;;;;;;44.30;5.22;;;;;;;8.35;100.00;95165.97;5003438;28;20042;-67
2024/03/31 00:12:05;;;;;;;41.97;5.45;;;;;;;8.22;100.00;95165.56;4998434;28;20185;-67
2024/03/31 00:14:32;;;;;;;35.53;4.03;;;;;;;8.13;100.00;95144.13;5002082;28;20392;-68
2024/03/31 00:16:58;;;;;;;45.22;6.05;;;;;;;8.04;100.00;95106.34;5002684;28;20054;-69
2024/03/31 00:19:24;;;;;;;39.75;5.07;;;;;;;8.02;100.00;95105.94;4998100;28;20050;-68
2024/03/31 00:21:49;;;;;;;42.00;6.18;;;;;;;7.99;100.00;95089.59;5001921;28;20034;-67
2024/03/31 00:24:15;;;;;;;55.47;5.43;;;;;;;8.04;100.00;95081.78;4999101;28;20041;-68
2024/03/31 00:26:40;;;;;;;32.38;6.50;;;;;;;8.08;100.00;95079.06;4984025;28;20409;-68
2024/03/31 00:29:06;;;;;;;36.78;5.07;;;;;;;8.04;100.00;95048.31;4998532;28;20099;-68
2024/03/31 00:31:31;;;;;;;49.50;5.40;;;;;;;7.96;100.00;95039.34;5005413;28;20125;-68
2024/03/31 00:33:57;;;;;;;54.60;5.70;;;;;;;8.04;100.00;95023.75;5004925;28;20033;-67
2024/03/31 00:36:22;;;;;;;49.47;5.60;;;;;;;8.16;100.00;94987.91;4998303;28;20449;-67
2024/03/31 00:38:47;;;;;;;42.70;5.90;;;;;;;8.21;100.00;94978.53;4986044;28;20042;-68
2024/03/31 00:41:13;;;;;;;41.00;5.95;;;;;;;8.29;100.00;94980.09;4980188;28;20034;-68
2024/03/31 00:43:38;;;;;;;33.53;5.45;;;;;;;8.34;100.00;94987.88;5001068;28;20053;-68
2024/03/31 00:46:04;;;;;;;45.05;5.68;;;;;;;8.41;100.00;94974.22;4997363;28;20212;-67
2024/03/31 00:48:29;;;;;;;46.92;6.57;;;;;;;8.49;100.00;94969.53;4983342;28;20138;-69
2024/03/31 00:50:54;;;;;;;37.15;6.63;;;;;;;8.36;100.00;94963.72;5001556;28;20046;-67
2024/03/31 00:53:20;;;;;;;44.22;5.45;;;;;;;8.21;100.00;94973.09;4978272;28;20730;-67
2024/03/31 00:55:45;;;;;;;47.40;7.10;;;;;;;8.10;100.00;94983.25;5001413;28;20046;-69
2024/03/31 00:58:10;;;;;;;40.97;4.78;;;;;;;8.04;100.00;95004.69;4996926;28;20080;-68
2024/03/31 01:00:36;;;;;;;46.83;5.22;;;;;;;8.03;100.00;95008.56;4984137;28;20041;-69
2024/03/31 01:03:02;;;;;;;49.60;5.38;;;;;;;7.99;100.00;94996.88;4999261;28;20080;-66
2024/03/31 01:05:28;;;;;;;38.45;5.93;;;;;;;8.03;100.00;94981.28;4999939;28;20401;-67
2024/03/31 01:07:53;;;;;;;41.75;5.35;;;;;;;7.99;100.00;94991.44;5001409;28;20041;-68
2024/03/31 01:10:19;;;;;;;40.80;5.22;;;;;;;7.99;100.00;94991.44;4978307;28;20045;-68
2024/03/31 01:12:45;;;;;;;33.35;4.80;;;;;;;7.99;100.00;94994.94;4984202;28;20046;-69
2024/03/31 01:15:11;;;;;;;42.05;4.80;;;;;;;8.02;100.00;94991.44;4996972;28;20077;-69
2024/03/31 01:17:36;;;;;;;50.50;6.75;;;;;;;8.06;100.00;94964.16;5000266;28;20062;-67
2024/03/31 01:20:02;;;;;;;39.45;5.18;;;;;;;8.20;100.00;94941.56;4997740;28;20034;-65
2024/03/31 01:22:28;;;;;;;37.47;6.93;;;;;;;8.24;100.00;94945.03;5000843;28;20038;-68
2024/03/31 01:24:54;;;;;;;32.42;4.57;;;;;;;8.30;100.00;94937.22;5000786;28;20045;-68
2024/03/31 01:27:20;;;;;;;45.72;6.40;;;;;;;8.28;100.00;94934.13;4995302;28;20030;-69
2024/03/31 01:29:45;;;;;;;32.28;5.05;;;;;;;8.28;100.00;94940.34;5001979;28;20396;-67
2024/03/31 01:32:11;;;;;;;55.55;5.88;;;;;;;7.77;100.00;94945.13;4994389;28;20239;-69
2024/03/31 01:34:37;;;;;;;48.70;6.55;;;;;;;7.56;100.00;94937.75;5000764;28;20060;-68
2024/03/31 01:37:03;;;;;;;33.60;4.38;;;;;;;7.52;100.00;94925.28;4997455;28;20477;-65
2024/03/31 01:39:28;;;;;;;56.88;5.47;;;;;;;7.46;100.00;94917.50;5000146;28;20136;-67
2024/03/31 01:41:56;;;;;;;36.38;4.82;;;;;;;7.56;100.00;94909.72;4999752;28;20049;-67
2024/03/31 01:44:21;;;;;;;46.97;6.78;;;;;;;7.96;100.00;94894.06;4995584;28;20388;-67
2024/03/31 01:46:47;;;;;;;29.83;4.88;;;;;;;8.18;100.00;94879.22;4999877;28;20547;-68
2024/03/31 01:49:12;;;;;;;53.40;5.47;;;;;;;8.19;100.00;94880.78;4994808;28;20528;-68
2024/03/31 01:51:37;;;;;;;42.05;4.65;;;;;;;8.24;100.00;94863.97;5000345;28;20045;-66
2024/03/31 01:54:03;;;;;;;42.33;5.00;;;;;;;8.25;100.00;94851.16;4996358;28;20389;-66
2024/03/31 01:56:28;;;;;;;40.63;5.20;;;;;;;8.16;100.00;94851.56;5000156;28;20100;-67
2024/03/31 01:58:54;;;;;;;48.85;6.68;;;;;;;8.10;100.00;94844.94;5000370;28;20140;-68
2024/03/31 02:01:19;;;;;;;33.08;5.85;;;;;;;8.01;100.00;94855.50;4996434;28;20045;-67
2024/03/31 02:03:45;;;;;;;26.00;4.07;;;;;;;7.97;100.00;94844.63;5000118;28;20052;-67
2024/03/31 02:06:11;;;;;;;37.63;6.03;;;;;;;7.85;100.00;94845.06;5005405;28;20294;-67
2024/03/31 02:08:37;;;;;;;41.75;5.63;;;;;;;7.68;100.00;94848.59;5020779;28;20081;-68
2024/03/31 02:11:03;;;;;;;38.20;6.45;;;;;;;7.62;100.00;94846.28;4998642;28;20038;-64
2024/03/31 02:13:29;;;;;;;44.65;5.85;;;;;;;7.55;100.00;94840.84;5008183;28;20057;-67
2024/03/31 02:15:55;;;;;;;29.13;5.05;;;;;;;7.49;100.00;94842.41;5002152;28;20050;-70
2024/03/31 02:18:21;;;;;;;35.67;4.40;;;;;;;7.40;100.00;94845.53;4999505;28;20325;-69
2024/03/31 02:20:47;;;;;;;36.03;5.53;;;;;;;7.36;100.00;94838.53;5001771;28;20049;-69
2024/03/31 02:23:12;;;;;;;30.48;4.70;;;;;;;7.33;100.00;94848.28;4996182;28;20404;-69
2024/03/31 02:25:37;;;;;;;39.45;4.85;;;;;;;7.30;100.00;94842.84;5000195;28;20042;-67
2024/03/31 02:28:03;;;;;;;39.95;6.57;;;;;;;7.34;100.00;94841.66;4996243;28;20045;-65
2024/03/31 02:30:29;;;;;;;35.75;4.90;;;;;;;7.54;100.00;94836.56;4981680;28;20034;-69
2024/03/31 02:32:54;;;;;;;37.40;4.97;;;;;;;7.52;100.00;94841.63;4981996;28;20080;-69
2024/03/31 02:35:20;;;;;;;32.42;4.05;;;;;;;7.40;100.00;94826.47;4995345;28;20042;-66
2024/03/31 02:37:47;;;;;;;31.05;5.40;;;;;;;7.36;100.00;94825.69;4998883;28;20535;-68
2024/03/31 02:40:13;;;;;;;32.05;4.18;;;;;;;7.25;100.00;94814.03;4993844;28;20034;-67
2024/03/31 02:42:40;;;;;;;27.17;4.65;;;;;;;7.23;100.00;94813.66;4999038;28;20049;-67
2024/03/31 02:45:05;;;;;;;30.83;4.53;;;;;;;7.22;100.00;94804.72;4995099;28;20076;-68
2024/03/31 02:47:31;;;;;;;27.92;4.32;;;;;;;7.31;100.00;94812.50;4999238;28;20049;-67
2024/03/31 02:49:56;;;;;;;28.38;3.85;;;;;;;7.30;100.00;94807.44;4998814;28;20049;-69
2024/03/31 02:52:21;;;;;;;28.25;4.13;;;;;;;7.39;100.00;94805.84;4995361;28;21001;-71
2024/03/31 02:54:47;;;;;;;34.75;4.72;;;;;;;7.44;100.00;94799.22;4999503;28;20046;-68
2024/03/31 02:57:12;;;;;;;42.60;4.15;;;;;;;7.50;100.00;94802.31;4994801;28;20208;-68
2024/03/31 02:59:38;;;;;;;38.63;3.80;;;;;;;7.49;100.00;94798.84;4981788;28;20045;-67
2024/03/31 03:02:04;;;;;;;24.30;3.78;;;;;;;7.48;100.00;94786.38;4994992;28;20057;-69
2024/03/31 03:04:30;;;;;;;27.42;4.18;;;;;;;7.48;100.00;94794.53;4999438;28;20125;-65
2024/03/31 03:06:55;;;;;;;19.45;4.10;;;;;;;7.50;100.00;94805.81;4999382;28;20046;-68
2024/03/31 03:09:22;;;;;;;30.42;4.93;;;;;;;7.54;100.00;94814.00;4977738;28;20456;-68
2024/03/31 03:11:47;;;;;;;30.08;4.88;;;;;;;7.54;100.00;94811.25;4999390;28;20053;-66
2024/03/31 03:14:13;;;;;;;23.13;4.55;;;;;;;7.60;100.00;94812.44;4995084;28;20033;-67
2024/03/31 03:16:38;;;;;;;28.10;4.25;;;;;;;7.60;100.00;94813.19;4998558;28;20108;-68
2024/03/31 03:19:04;;;;;;;29.45;3.50;;;;;;;7.70;100.00;94800.72;4995037;28;20136;-63
2024/03/31 03:21:29;;;;;;;22.95;3.08;;;;;;;7.72;100.00;94798.34;4998293;28;20060;-66
2024/03/31 03:23:55;;;;;;;24.35;4.05;;;;;;;7.74;100.00;94803.41;5000085;28;20042;-66
2024/03/31 03:26:20;;;;;;;26.27;5.80;;;;;;;7.93;100.00;94824.78;4993373;28;20042;-67
2024/03/31 03:28:46;;;;;;;25.52;4.55;;;;;;;7.85;100.00;94815.09;4999535;28;20388;-66
2024/03/31 03:31:12;;;;;;;22.73;3.20;;;;;;;7.83;100.00;94817.41;4994274;28;20506;-69
2024/03/31 03:33:37;;;;;;;18.02;2.85;;;;;;;8.06;100.00;94829.78;5001141;28;20056;-68
2024/03/31 03:36:04;;;;;;;28.40;3.72;;;;;;;8.09;100.00;94831.75;4997816;28;20127;-66
2024/03/31 03:38:30;;;;;;;26.42;2.75;;;;;;;8.11;100.00;94837.56;4997184;28;20084;-67
2024/03/31 03:40:55;;;;;;;27.58;3.05;;;;;;;8.15;100.00;94838.31;5002240;28;20070;-66
2024/03/31 03:43:20;;;;;;;19.50;3.53;;;;;;;8.12;100.00;94841.84;4999606;28;20061;-66
2024/03/31 03:45:46;;;;;;;28.63;2.53;;;;;;;8.39;100.00;94842.91;5002664;28;20036;-67
2024/03/31 03:48:12;;;;;;;14.98;2.55;;;;;;;8.48;100.00;94830.78;4996258;28;20038;-67
2024/03/31 03:50:37;;;;;;;22.25;3.03;;;;;;;8.45;100.00;94839.78;5002413;28;20129;-67
2024/03/31 03:53:05;;;;;;;22.80;2.63;;;;;;;8.39;100.00;94840.16;5000057;28;20654;-65
2024/03/31 03:55:30;;;;;;;24.00;2.55;;;;;;;8.31;100.00;94840.59;5002777;28;20050;-67
2024/03/31 03:57:56;;;;;;;18.83;3.10;;;;;;;8.26;100.00;94841.00;5001466;28;20042;-67
2024/03/31 04:00:21;;;;;;;21.98;3.33;;;;;;;8.16;100.00;94846.13;4997410;28;20045;-67
2024/03/31 04:02:50;;;;;;;22.70;2.53;;;;;;;8.09;100.00;94842.66;5001688;28;20073;-67
2024/03/31 04:05:15;;;;;;;23.98;2.78;;;;;;;8.08;100.00;94844.56;4979507;28;20586;-67
2024/03/31 04:07:41;;;;;;;26.13;2.67;;;;;;;8.11;100.00;94846.50;4984177;28;20038;-67
2024/03/31 04:10:06;;;;;;;22.15;2.53;;;;;;;8.12;100.00;94847.28;4979277;28;20539;-68
2024/03/31 04:12:32;;;;;;;26.83;2.83;;;;;;;8.10;100.00;94841.47;5002086;28;20492;-68
2024/03/31 04:14:59;;;;;;;24.00;2.95;;;;;;;8.09;100.00;94845.38;5002039;28;20492;-67
2024/03/31 04:17:24;;;;;;;20.48;2.70;;;;;;;8.09;100.00;94857.03;4996843;28;20046;-66
2024/03/31 04:19:50;;;;;;;24.77;2.95;;;;;;;7.86;100.00;94857.50;5001710;28;20850;-67
2024/03/31 04:22:15;;;;;;;23.77;3.30;;;;;;;7.65;100.00;94848.22;4978798;28;20056;-68
2024/03/31 04:24:41;;;;;;;27.75;3.05;;;;;;;7.69;100.00;94848.22;5004141;28;20052;-66
2024/03/31 04:27:06;;;;;;;28.10;4.22;;;;;;;7.62;100.00;94848.22;4996840;28;20042;-66
2024/03/31 04:29:32;;;;;;;30.65;4.07;;;;;;;7.52;100.00;94846.28;4999563;28;20103;-68
2024/03/31 04:31:58;;;;;;;42.30;4.45;;;;;;;7.43;100.00;94844.75;5003193;28;20038;-66
2024/03/31 04:34:30;;;;;;;15.80;3.20;;;;;;;7.34;100.00;94840.88;4996805;28;20046;-68
2024/03/31 04:36:57;;;;;;;29.52;3.92;;;;;;;7.35;100.00;94847.88;4983520;28;20034;-68
2024/03/31 04:39:24;;;;;;;25.13;4.20;;;;;;;7.32;100.00;94846.72;4996118;28;20737;-68
2024/03/31 04:41:51;;;;;;;34.75;4.93;;;;;;;7.35;100.00;94853.34;5001775;28;20042;-69
2024/03/31 04:44:16;;;;;;;26.70;4.55;;;;;;;7.27;100.00;94852.53;4995976;28;20132;-66
2024/03/31 04:46:44;;;;;;;23.85;4.95;;;;;;;7.26;100.00;94865.38;5002647;28;20141;-68
2024/03/31 04:49:09;;;;;;;23.70;3.45;;;;;;;7.03;100.00;94860.31;4998186;28;20038;-67
2024/03/31 04:51:34;;;;;;;32.35;4.60;;;;;;;7.00;100.00;94863.81;5003594;28;20084;-67
2024/03/31 04:54:02;;;;;;;30.45;4.13;;;;;;;6.95;100.00;94866.16;4984661;28;20124;-68
2024/03/31 04:56:27;;;;;;;29.17;3.88;;;;;;;6.83;100.00;94861.88;4999785;28;20158;-68
2024/03/31 04:58:53;;;;;;;34.28;4.00;;;;;;;7.09;100.00;94855.25;5002088;28;20162;-66
2024/03/31 05:01:18;;;;;;;32.55;3.92;;;;;;;7.06;100.00;94850.63;4996855;28;20045;-68
2024/03/31 05:03:44;;;;;;;27.02;4.25;;;;;;;7.11;100.00;94839.31;5005720;28;20162;-68
2024/03/31 05:06:09;;;;;;;21.92;3.42;;;;;;;7.13;100.00;94842.44;5002656;28;20041;-68
2024/03/31 05:08:35;;;;;;;30.48;3.95;;;;;;;7.18;100.00;94839.31;5002491;28;20607;-68
2024/03/31 05:11:00;;;;;;;24.38;4.30;;;;;;;7.17;100.00;94832.34;5002924;28;20038;-68
2024/03/31 05:13:29;;;;;;;26.52;3.90;;;;;;;7.22;100.00;94817.53;4997664;28;20129;-67
2024/03/31 05:16:02;;;;;;;28.20;4.38;;;;;;;6.79;100.00;94826.50;5000434;28;20145;-68
2024/03/31 05:18:28;;;;;;;24.63;3.65;;;;;;;6.43;100.00;94818.28;5000910;28;20046;-68
2024/03/31 05:20:58;;;;;;;26.95;4.78;;;;;;;6.55;100.00;94814.41;5002802;28;20503;-69
2024/03/31 05:23:24;;;;;;;;;;;;;;;6.63;100.00;94839.69;4997532;28;20135;-68
2024/03/31 05:25:50;;;;;;;38.67;6.50;;;;;;;6.71;100.00;94835.81;5002819;28;20411;-68
2024/03/31 05:28:16;;;;;;;27.15;3.67;;;;;;;6.67;100.00;94837.75;4995791;28;20049;-67
2024/03/31 05:30:42;;;;;;;32.83;5.60;;;;;;;6.66;100.00;94836.19;5001437;28;20046;-67
2024/03/31 05:33:07;;;;;;;24.27;4.38;;;;;;;6.61;100.00;94831.13;4978961;28;20455;-68
2024/03/31 05:35:33;;;;;;;20.95;3.90;;;;;;;6.65;100.00;94838.13;5001946;28;20038;-68
2024/03/31 05:37:58;;;;;;;18.60;3.42;;;;;;;6.69;100.00;94821.81;4983209;28;20073;-68
2024/03/31 05:40:23;;;;;;;26.95;4.68;;;;;;;6.74;100.00;94818.72;4997442;28;20696;-68
2024/03/31 05:42:49;;;;;;;23.20;3.55;;;;;;;6.84;100.00;94828.03;5004708;28;20231;-68
2024/03/31 05:45:14;;;;;;;25.10;3.92;;;;;;;6.90;100.00;94826.50;4998819;28;20065;-68
2024/03/31 05:47:39;;;;;;;19.67;3.22;;;;;;;6.88;100.00;94817.97;5001087;28;20046;-69
2024/03/31 05:50:06;;;;;;;24.70;4.18;;;;;;;6.84;100.00;94812.50;4996549;28;20042;-66
2024/03/31 05:52:32;;;;;;;22.30;3.63;;;;;;;6.89;100.00;94814.81;5000848;28;20041;-70
2024/03/31 05:54:58;;;;;;;19.92;3.95;;;;;;;6.99;100.00;94816.00;4983840;28;20447;-68
2024/03/31 05:57:23;;;;;;;22.27;4.43;;;;;;;7.07;100.00;94812.09;4994744;28;20878;-67
2024/03/31 05:59:49;;;;;;;20.83;3.55;;;;;;;7.13;100.00;94806.25;4982041;28;20057;-68
2024/03/31 06:02:14;;;;;;;27.73;4.47;;;;;;;7.22;100.00;94802.00;4996424;28;20060;-68
2024/03/31 06:04:40;;;;;;;23.85;2.90;;;;;;;7.41;100.00;94806.22;5000982;28;20057;-68
2024/03/31 06:07:05;;;;;;;19.38;4.28;;;;;;;7.63;100.00;94808.91;4995840;28;20428;-66
2024/03/31 06:09:31;;;;;;;25.73;3.80;;;;;;;7.82;100.00;94807.69;5001416;28;20555;-66
2024/03/31 06:11:56;;;;;;;26.60;3.08;;;;;;;7.90;100.00;94797.53;5001259;28;20108;-66
2024/03/31 06:14:22;;;;;;;30.35;3.72;;;;;;;7.85;100.00;94801.47;4996424;28;20483;-68
2024/03/31 06:16:47;;;;;;;15.00;2.80;;;;;;;7.91;100.00;94797.13;5001756;28;20432;-68
2024/03/31 06:19:13;;;;;;;21.15;3.47;;;;;;;7.76;100.00;94795.63;5006410;28;20038;-65
2024/03/31 06:21:38;;;;;;;19.65;4.32;;;;;;;7.69;100.00;94788.28;5002889;28;20049;-65
2024/03/31 06:24:04;;;;;;;26.40;3.72;;;;;;;7.67;100.00;94782.44;5011908;28;20046;-65
2024/03/31 06:26:29;;;;;;;18.30;3.33;;;;;;;7.77;100.00;94776.16;5002821;28;20048;-66
2024/03/31 06:28:55;;;;;;;14.18;3.28;;;;;;;7.84;100.00;94772.63;5000338;28;20042;-67
2024/03/31 06:31:20;;;;;;;21.58;3.03;;;;;;;8.10;100.00;94782.25;4994477;28;20952;-68
2024/03/31 06:33:45;;;;;;;22.17;2.78;;;;;;;8.28;100.00;94770.47;4997608;28;20050;-67
2024/03/31 06:36:11;;;;;;;18.10;3.95;;;;;;;8.31;100.00;94765.00;4977490;28;20138;-67
2024/03/31 06:38:36;;;;;;;26.50;5.38;;;;;;;8.39;100.00;94758.31;5000083;28;20046;-67
2024/03/31 06:41:02;;;;;;;23.27;3.45;;;;;;;8.42;100.00;94756.78;4996911;28;20077;-64
2024/03/31 06:43:28;;;;;;;19.17;4.90;;;;;;;8.40;100.00;94746.22;4988902;28;20038;-68
2024/03/31 06:45:54;;;;;;;22.27;5.18;;;;;;;8.41;100.00;94747.78;4999776;28;20046;-68
2024/03/31 06:48:20;;;;;;;20.50;3.72;;;;;;;8.40;100.00;94743.50;4977072;28;20030;-67
2024/03/31 06:50:45;;;;;;;21.65;4.28;;;;;;;8.44;100.00;94726.38;5000037;28;20034;-66
2024/03/31 06:53:11;;;;;;;28.92;4.30;;;;;;;8.50;100.00;94730.22;4993931;28;20059;-66
2024/03/31 06:55:36;;;;;;;20.45;3.28;;;;;;;8.65;100.00;94726.22;4982248;28;20138;-68
2024/03/31 06:58:02;;;;;;;14.70;3.03;;;;;;;8.80;100.00;94722.19;4994413;28;20041;-64
2024/03/31 07:00:27;;;;;;;17.95;5.45;;;;;;;8.91;100.00;94726.75;4998974;28;20042;-68
2024/03/31 07:02:53;;;;;;;18.23;2.75;;;;;;;8.96;100.00;94715.41;5000167;28;20042;-67
2024/03/31 07:05:18;;;;;;;26.88;5.32;;;;;;;9.00;100.00;94727.06;4977665;28;20140;-65
2024/03/31 07:07:44;;;;;;;21.48;4.95;;;;;;;9.15;100.00;94717.56;4999474;28;20052;-68
2024/03/31 07:10:09;;;;;;;22.98;4.22;;;;;;;9.28;100.00;94726.03;4997959;28;20064;-66
2024/03/31 07:12:35;;;;;;;14.77;3.60;;;;;;;9.19;100.00;94731.97;5003959;28;20065;-67
2024/03/31 07:15:00;;;;;;;17.40;2.17;;;;;;;9.33;100.00;94724.81;5004062;28;20493;-67
2024/03/31 07:17:26;;;;;;;20.30;3.13;;;;;;;9.36;100.00;94722.03;4999408;28;20107;-66
2024/03/31 07:19:51;;;;;;;17.02;3.25;;;;;;;9.41;100.00;94711.84;4984968;28;20038;-67
2024/03/31 07:22:17;;;;;;;12.75;3.05;;;;;;;9.51;100.00;94714.47;4999219;28;20050;-67
2024/03/31 07:24:42;;;;;;;13.10;2.03;;;;;;;9.76;100.00;94727.06;4985018;28;20052;-67
2024/03/31 07:27:08;;;;;;;20.02;3.10;;;;;;;9.81;100.00;94715.66;4998650;28;20148;-68
2024/03/31 07:29:34;;;;;;;19.65;3.72;;;;;;;9.85;100.00;94719.13;5001733;28;20038;-67
2024/03/31 07:31:59;;;;;;;14.98;2.13;;;;;;;10.08;100.00;94728.59;5002858;28;20405;-68
2024/03/31 07:34:26;;;;;;;17.70;3.53;;;;;;;10.17;100.00;94725.34;4999120;28;20073;-68
2024/03/31 07:36:52;;;;;;;17.88;4.85;;;;;;;10.45;100.00;94721.47;5003780;28;20045;-68
2024/03/31 07:39:17;;;;;;;15.52;3.15;;;;;;;10.60;100.00;94722.03;5000248;28;20050;-68
2024/03/31 07:41:42;;;;;;;16.52;2.38;;;;;;;11.13;100.00;94722.31;5002529;28;20049;-68
2024/03/31 07:44:08;;;;;;;19.55;3.08;;;;;;;10.96;100.00;94719.47;4998733;28;20069;-67
2024/03/31 07:46:33;;;;;;;21.55;4.40;;;;;;;10.88;100.00;94718.06;4984601;28;20423;-66
2024/03/31 07:48:59;;;;;;;23.80;5.20;;;;;;;10.91;100.00;94717.22;5004554;28;20049;-65
2024/03/31 07:51:24;;;;;;;17.05;3.60;;;;;;;10.93;100.00;94711.31;4998923;28;20445;-67
2024/03/31 07:53:49;;;;;;;12.23;2.80;;;;;;;11.23;100.00;94713.16;4985367;28;20034;-67
2024/03/31 07:56:15;;;;;;;25.85;5.25;;;;;;;11.42;100.00;94717.88;4983072;28;20038;-68
2024/03/31 07:58:40;;;;;;;10.90;2.58;;;;;;;11.90;100.00;94720.47;4987739;28;20042;-68
2024/03/31 08:01:06;;;;;;;15.07;3.85;;;;;;;12.47;100.00;94715.75;4998475;28;20046;-67
2024/03/31 08:03:31;;;;;;;19.98;3.05;;;;;;;12.52;100.00;94704.28;5004416;28;20137;-68
2024/03/31 08:05:56;;;;;;;14.88;3.10;;;;;;;12.12;100.00;94694.19;5004958;28;20046;-67
2024/03/31 08:08:22;;;;;;;13.88;2.45;;;;;;;12.15;100.00;94698.78;4980911;28;20379;-67
2024/03/31 08:10:47;;;;;;;18.17;2.28;;;;;;;12.59;100.00;94699.38;5004361;28;20117;-70
2024/03/31 08:13:13;;;;;;;14.90;2.67;;;;;;;12.28;100.00;94701.69;4999417;28;20873;-67
2024/03/31 08:15:42;;;;;;;17.95;3.28;;;;;;;12.81;100.00;94698.88;4986607;28;20785;-68
2024/03/31 08:18:09;;;;;;;21.23;3.40;;;;;;;12.87;100.00;94697.13;4998072;28;20037;-68
2024/03/31 08:20:35;;;;;;;17.55;3.00;;;;;;;12.49;100.00;94694.13;5003114;28;20054;-67
2024/03/31 08:23:00;;;;;;;20.23;3.03;;;;;;;12.29;100.00;94694.22;5003823;28;20077;-66
2024/03/31 08:25:26;;;;;;;14.63;3.17;;;;;;;12.33;100.00;94703.13;4998057;28;20101;-67
2024/03/31 08:27:51;;;;;;;15.10;2.25;;;;;;;12.54;100.00;94697.16;5002863;28;20045;-67
2024/03/31 08:30:17;;;;;;;16.90;2.50;;;;;;;12.57;100.00;94698.28;4999354;28;20133;-66
2024/03/31 08:32:44;;;;;;;14.00;2.80;;;;;;;13.22;100.00;94707.66;5003756;28;20129;-66
2024/03/31 08:35:09;;;;;;;15.02;1.73;;;;;;;13.76;100.00;94710.56;4997282;28;20034;-67
2024/03/31 08:37:35;;;;;;;19.05;3.05;;;;;;;13.62;100.00;94699.19;5002566;28;20053;-67
2024/03/31 08:40:00;;;;;;;20.33;2.20;;;;;;;13.75;100.00;94702.72;5002107;28;20153;-66
2024/03/31 08:42:36;;;;;;;13.18;2.50;;;;;;;14.19;100.00;94700.31;4997412;28;20042;-66
2024/03/31 08:45:04;;;;;;;16.27;3.33;;;;;;;14.03;97.77;94692.91;4997047;28;20073;-65
2024/03/31 08:47:34;;;;;;;14.65;1.90;;;;;;;14.43;97.38;94697.22;4984888;28;20026;-68
2024/03/31 08:50:00;;;;;;;;;;;;;;;14.24;98.34;94687.94;4985166;28;20104;-66
2024/03/31 08:52:28;;;;;;;14.52;1.73;;;;;;;14.55;95.15;94696.47;4978231;28;19921;-66
2024/03/31 08:54:55;;;;;;;15.50;2.58;;;;;;;14.45;93.12;94703.06;5002587;28;20459;-66
2024/03/31 08:57:21;;;;;;;12.85;1.58;;;;;;;14.33;96.11;94696.31;4997286;28;20050;-66
2024/03/31 08:59:48;;;;;;;13.73;2.47;;;;;;;14.67;99.60;94697.69;4983534;28;20048;-66
2024/03/31 09:02:23;;;;;;;15.25;2.15;;;;;;;14.15;97.71;94699.63;4997183;28;20045;-67
2024/03/31 09:04:50;;;;;;;17.42;1.92;;;;;;;14.25;99.40;94697.78;5002344;28;20045;-66
2024/03/31 09:07:15;;;;;;;10.18;1.55;;;;;;;14.45;98.49;94687.31;4996746;28;20077;-67
2024/03/31 09:09:41;;;;;;;15.75;1.80;;;;;;;14.23;99.42;94700.19;4983598;28;20193;-67
2024/03/31 09:12:11;;;;;;;13.45;2.22;;;;;;;14.20;100.00;94712.06;4996229;28;20041;-65
2024/03/31 09:14:41;;;;;;;13.10;1.83;;;;;;;14.23;100.00;94717.47;4985110;28;20894;-67
2024/03/31 09:17:07;;;;;;;;;;;;;;;14.39;98.89;94704.84;4995733;28;20042;-67
2024/03/31 09:19:32;;;;;;;6.43;1.35;;;;;;;14.44;95.13;94691.28;4983568;28;19940;-67
2024/03/31 09:21:57;;;;;;;9.32;2.30;;;;;;;14.55;96.70;94713.00;4983243;28;20049;-65
2024/03/31 09:24:23;;;;;;;13.23;2.08;;;;;;;14.53;96.18;94707.91;4979125;28;20814;-67
2024/03/31 09:26:49;;;;;;;19.45;2.33;;;;;;;14.48;98.14;94707.69;5001519;28;20097;-67
2024/03/31 09:29:14;;;;;;;15.07;2.33;;;;;;;14.30;100.00;94700.75;4996927;28;20042;-68
2024/03/31 09:31:40;;;;;;;10.68;2.92;;;;;;;14.21;100.00;94683.34;4999035;28;20133;-68
2024/03/31 09:34:07;;;;;;;17.80;6.78;;;;;;;13.89;100.00;94674.81;4995770;28;20034;-68
2024/03/31 09:36:36;;;;;;;13.80;2.13;;;;;;;13.75;100.00;94672.47;5001242;28;20137;-67
2024/03/31 09:39:03;;;;;;;9.98;2.25;;;;;;;13.96;100.00;94663.59;4999120;28;20049;-65
2024/03/31 09:41:29;;;;;;;15.35;2.83;;;;;;;14.33;100.00;94686.09;4982771;28;20052;-67
2024/03/31 09:43:55;;;;;;;20.95;6.32;;;;;;;14.54;100.00;94694.91;4985460;28;20064;-68
2024/03/31 09:46:20;;;;;;;16.05;2.53;;;;;;;14.11;99.03;94679.69;4997491;28;20367;-66
2024/03/31 09:48:50;;;;;;;11.80;2.60;;;;;;;14.07;95.78;94677.03;5001030;28;20038;-67
2024/03/31 09:51:20;;;;;;;12.65;2.78;;;;;;;14.01;97.47;94667.00;4978154;28;20034;-66
2024/03/31 09:53:54;;;;;;;13.77;4.65;;;;;;;14.04;99.43;94664.16;5001379;28;20037;-66
2024/03/31 09:56:24;;;;;;;12.07;2.35;;;;;;;13.89;99.58;94665.78;4978546;28;20046;-67
2024/03/31 09:58:52;;;;;;;18.10;2.72;;;;;;;13.90;100.00;94670.06;4984196;28;20046;-67
2024/03/31 10:01:18;;;;;;;13.65;2.95;;;;;;;13.86;98.39;94680.41;4996550;28;20033;-69
2024/03/31 10:03:47;;;;;;;15.05;2.13;;;;;;;13.87;100.00;94681.97;5002686;28;20070;-69
2024/03/31 10:06:15;;;;;;;9.83;1.80;;;;;;;13.98;97.91;94696.19;4995778;28;20095;-69
2024/03/31 10:08:41;;;;;;;12.68;1.90;;;;;;;13.88;98.19;94683.50;4984473;28;20858;-69
2024/03/31 10:11:07;;;;;;;15.18;2.03;;;;;;;13.81;98.96;94689.22;4995437;28;20073;-65
2024/03/31 10:13:33;;;;;;;9.88;1.73;;;;;;;13.84;97.46;94691.09;5001492;28;20065;-67
2024/03/31 10:15:59;;;;;;;14.98;2.28;;;;;;;14.33;85.79;94686.09;5000485;28;20041;-67
2024/03/31 10:18:26;;;;;;;17.98;3.65;;;;;;;14.14;94.50;94676.81;4996112;28;20038;-66
2024/03/31 10:20:53;;;;;;;10.13;1.60;;;;;;;14.20;92.62;94674.28;5008851;28;20057;-68
2024/03/31 10:23:19;;;;;;;12.30;1.75;;;;;;;14.63;80.90;94683.25;4986843;28;20049;-68
2024/03/31 10:25:46;;;;;;;14.75;2.38;;;;;;;14.85;75.74;94686.84;5006607;28;20046;-68
2024/03/31 10:28:13;;;;;;;12.82;2.78;;;;;;;14.93;81.74;94689.38;4999012;28;20038;-66
2024/03/31 10:30:38;;;;;;;8.20;1.70;;;;;;;14.64;85.58;94688.31;5010857;28;20050;-66
2024/03/31 10:33:04;;;;;;;17.52;1.95;;;;;;;14.77;84.36;94685.56;5011127;28;20084;-67
2024/03/31 10:35:33;;;;;;;11.05;2.30;;;;;;;14.53;86.56;94679.56;5012141;28;20385;-67
2024/03/31 10:37:59;;;;;;;13.00;2.08;;;;;;;14.75;85.15;94681.69;5005031;28;20128;-68
2024/03/31 10:40:26;;;;;;;16.20;2.28;;;;;;;14.81;84.00;94683.44;4998799;28;20070;-69
2024/03/31 10:42:56;;;;;;;10.05;2.45;;;;;;;14.88;85.33;94688.72;5002333;28;20135;-67
2024/03/31 10:45:22;;;;;;;10.05;3.15;;;;;;;14.88;88.20;94682.44;4983498;28;20073;-68
2024/03/31 10:47:48;;;;;;;18.25;2.78;;;;;;;14.87;85.25;94689.16;5005334;28;20065;-68
2024/03/31 10:50:14;;;;;;;15.80;2.65;;;;;;;14.97;91.29;94685.28;4984272;28;20433;-67
2024/03/31 10:52:39;;;;;;;13.30;2.10;;;;;;;14.99;88.08;94687.59;5005624;28;20048;-68
2024/03/31 10:55:09;;;;;;;10.88;1.50;;;;;;;15.40;70.26;94697.63;5000681;28;20057;-67
2024/03/31 10:57:39;;;;;;;14.48;2.47;;;;;;;15.48;76.64;94676.09;4987577;28;20563;-67
2024/03/31 11:00:07;;;;;;;14.60;2.15;;;;;;;15.97;79.07;94675.53;5001229;28;20041;-67
2024/03/31 11:02:34;;;;;;;7.97;2.47;;;;;;;15.57;81.72;94667.09;5007981;28;20037;-68
2024/03/31 11:05:00;;;;;;;7.90;2.00;;;;;;;16.20;78.81;94662.44;4989662;28;20042;-69
2024/03/31 11:07:26;;;;;;;12.68;3.03;;;;;;;16.34;77.88;94661.91;5000520;28;20105;-69
2024/03/31 11:09:53;;;;;;;6.38;1.33;;;;;;;16.80;61.49;94684.19;5004964;28;20044;-67
2024/03/31 11:12:20;;;;;;;13.60;1.60;;;;;;;17.42;60.38;94703.84;5001060;28;20042;-65
2024/03/31 11:14:46;;;;;;;7.93;1.23;;;;;;;17.17;63.44;94713.94;5003889;28;20076;-69
2024/03/31 11:17:11;;;;;;;9.45;1.40;;;;;;;17.85;57.58;94694.47;4999612;28;20125;-68
2024/03/31 11:19:37;;;;;;;8.85;1.40;;;;;;;18.02;55.53;94702.44;5004150;28;20033;-67